Terminal Aerodrome Forecast
Issued by NWS

Home | Current Version | Previous Version | Text Only | Print | Product List | Glossary On
Versions: 1 2 3 4 5 6 7 8 9 10 11 12 13 14 15
000
FTUS43 KGRB 280520
TAFATW
TAF
KATW 280520Z 2806/0106 16005KT P6SM BKN090
     FM280900 15006KT 4SM -RA OVC025
     FM281000 14007KT 3SM -RA OVC008
     FM281500 16006KT 1 1/2SM -DZ OVC003
     FM282100 23008KT 1 1/2SM -RA OVC003
     FM010000 01010KT 1 1/2SM -RA OVC004=

USA.gov is the U.S. government's official web portal to all federal, state and local government web resources and services.